createdAt,value
2019-01-28T00:00:47.564Z,100.00
2019-01-28T00:03:13.487Z,100.00
2019-01-28T00:05:39.367Z,100.00
2019-01-28T00:08:05.167Z,100.00
2019-01-28T00:10:31.021Z,100.00
2019-01-28T00:12:56.959Z,100.00
2019-01-28T00:15:23.000Z,100.00
2019-01-28T00:17:48.863Z,100.00
2019-01-28T00:20:14.700Z,100.00
2019-01-28T00:22:40.542Z,100.00
2019-01-28T00:25:48.019Z,100.00
2019-01-28T00:28:14.052Z,100.00
2019-01-28T00:30:39.888Z,100.00
2019-01-28T00:33:05.728Z,100.00
2019-01-28T00:35:31.678Z,100.00
2019-01-28T00:37:57.481Z,100.00
2019-01-28T00:40:23.361Z,100.00
2019-01-28T00:42:49.170Z,100.00
2019-01-28T00:45:15.119Z,100.00
2019-01-28T00:47:41.041Z,100.00
2019-01-28T00:50:48.531Z,100.00
2019-01-28T00:53:14.443Z,100.00
2019-01-28T00:55:40.307Z,100.00
2019-01-28T00:58:06.118Z,100.00
2019-01-28T01:00:32.146Z,100.00
2019-01-28T01:02:58.104Z,100.00
2019-01-28T01:05:24.015Z,100.00
2019-01-28T01:07:49.938Z,100.00
2019-01-28T01:10:15.901Z,100.00
2019-01-28T01:12:41.906Z,100.00
2019-01-28T01:15:49.365Z,100.00
2019-01-28T01:18:15.299Z,100.00
2019-01-28T01:20:41.109Z,100.00
2019-01-28T01:23:06.944Z,100.00
2019-01-28T01:25:32.772Z,100.00
2019-01-28T01:27:58.637Z,100.00
2019-01-28T01:30:24.491Z,100.00
2019-01-28T01:32:50.303Z,100.00
2019-01-28T01:35:16.135Z,100.00
2019-01-28T01:37:41.981Z,100.00
2019-01-28T01:40:49.479Z,100.00
2019-01-28T01:43:15.352Z,100.00
2019-01-28T01:45:41.212Z,100.00
2019-01-28T01:48:07.032Z,100.00
2019-01-28T01:50:32.885Z,100.00
2019-01-28T01:52:58.695Z,100.00
2019-01-28T01:55:24.544Z,100.00
2019-01-28T01:57:50.390Z,100.00
2019-01-28T02:00:57.906Z,100.00
2019-01-28T02:03:23.735Z,100.00
2019-01-28T02:05:49.573Z,100.00
2019-01-28T02:08:15.525Z,100.00
2019-01-28T02:10:41.346Z,100.00
2019-01-28T02:13:07.217Z,100.00
2019-01-28T02:15:33.138Z,100.00
2019-01-28T02:17:58.985Z,100.00
2019-01-28T02:20:24.840Z,100.00
2019-01-28T02:22:50.696Z,100.00
2019-01-28T02:25:16.561Z,100.00
2019-01-28T02:27:42.371Z,100.00
2019-01-28T02:30:49.884Z,100.00
2019-01-28T02:33:16.164Z,100.00
2019-01-28T02:35:42.018Z,100.00
2019-01-28T02:38:07.866Z,100.00
2019-01-28T02:40:40.516Z,100.00
2019-01-28T02:43:06.352Z,100.00
2019-01-28T02:45:32.183Z,100.00
2019-01-28T02:47:58.005Z,100.00
2019-01-28T02:50:23.857Z,100.00
2019-01-28T02:52:49.679Z,100.00
2019-01-28T02:57:49.257Z,100.00
2019-01-28T03:00:56.783Z,100.00
2019-01-28T03:03:22.614Z,100.00
2019-01-28T03:05:48.445Z,100.00
2019-01-28T03:08:14.256Z,100.00
2019-01-28T03:10:40.096Z,100.00
2019-01-28T03:13:05.943Z,100.00
2019-01-28T03:15:31.786Z,100.00
2019-01-28T03:17:57.600Z,100.00
2019-01-28T03:20:23.778Z,100.00
2019-01-28T03:22:49.732Z,100.00
2019-01-28T03:25:57.237Z,100.00
2019-01-28T03:28:23.062Z,100.00
2019-01-28T03:30:48.880Z,100.00
2019-01-28T03:33:14.736Z,100.00
2019-01-28T03:35:40.548Z,100.00
2019-01-28T03:38:06.387Z,100.00
2019-01-28T03:40:32.239Z,100.00
2019-01-28T03:42:58.098Z,100.00
2019-01-28T03:45:23.959Z,100.00
2019-01-28T03:47:49.959Z,100.00
2019-01-28T03:50:57.449Z,100.00
2019-01-28T03:53:23.502Z,100.00
2019-01-28T03:55:49.440Z,100.00
2019-01-28T03:58:15.276Z,100.00
2019-01-28T04:00:41.097Z,100.00
2019-01-28T04:03:06.926Z,100.00
2019-01-28T04:05:32.898Z,100.00
2019-01-28T04:07:58.714Z,100.00
2019-01-28T04:10:24.692Z,100.00
2019-01-28T04:12:50.642Z,100.00
2019-01-28T04:15:38.236Z,100.00
2019-01-28T04:18:04.202Z,100.00
2019-01-28T04:20:30.051Z,100.00
2019-01-28T04:22:55.887Z,100.00
2019-01-28T04:25:23.864Z,100.00
2019-01-28T04:30:59.256Z,100.00
2019-01-28T04:33:25.221Z,100.00
2019-01-28T04:35:51.150Z,100.00
2019-01-28T04:38:16.979Z,100.00
2019-01-28T04:40:42.826Z,100.00
2019-01-28T04:43:08.651Z,100.00
2019-01-28T04:45:34.490Z,100.00
2019-01-28T04:48:00.364Z,100.00
2019-01-28T04:50:26.236Z,100.00
2019-01-28T04:52:52.078Z,100.00
2019-01-28T04:55:59.547Z,100.00
2019-01-28T04:58:25.383Z,100.00
2019-01-28T05:00:51.247Z,100.00
2019-01-28T05:03:17.102Z,100.00
2019-01-28T05:05:42.941Z,100.00
2019-01-28T05:08:08.788Z,100.00
2019-01-28T05:10:34.608Z,100.00
2019-01-28T05:13:00.447Z,100.00
2019-01-28T05:15:26.282Z,100.00
2019-01-28T05:17:52.120Z,100.00
2019-01-28T05:20:59.596Z,100.00
2019-01-28T05:23:25.498Z,100.00
2019-01-28T05:25:51.340Z,100.00
2019-01-28T05:28:17.161Z,100.00
2019-01-28T05:30:42.984Z,100.00
2019-01-28T05:33:08.844Z,100.00
2019-01-28T05:35:34.661Z,100.00
2019-01-28T05:38:00.494Z,100.00
2019-01-28T05:40:26.343Z,100.00
2019-01-28T05:42:52.180Z,100.00
2019-01-28T05:45:59.682Z,100.00
2019-01-28T05:48:25.528Z,100.00
2019-01-28T05:50:51.367Z,100.00
2019-01-28T05:53:17.229Z,100.00
2019-01-28T05:55:43.145Z,100.00
2019-01-28T05:58:08.975Z,100.00
2019-01-28T06:00:54.686Z,100.00
2019-01-28T06:03:20.582Z,100.00
2019-01-28T06:05:46.375Z,100.00
2019-01-28T06:08:12.208Z,100.00
2019-01-28T06:10:38.032Z,100.00
2019-01-28T06:13:04.183Z,100.00
2019-01-28T06:15:30.082Z,100.00
2019-01-28T06:17:55.936Z,100.00
2019-01-28T06:20:41.625Z,100.00
2019-01-28T06:23:07.470Z,100.00
2019-01-28T06:25:33.400Z,100.00
2019-01-28T06:27:59.259Z,100.00
2019-01-28T06:31:06.747Z,100.00
2019-01-28T06:33:32.566Z,100.00
2019-01-28T06:35:58.402Z,100.00
2019-01-28T06:38:24.208Z,100.00
2019-01-28T06:40:50.150Z,100.00
2019-01-28T06:43:16.038Z,100.00
2019-01-28T06:45:41.888Z,100.00
2019-01-28T06:48:07.758Z,100.00
2019-01-28T06:50:33.603Z,100.00
2019-01-28T06:52:59.533Z,100.00
2019-01-28T06:55:25.348Z,100.00
2019-01-28T06:57:51.187Z,100.00
2019-01-28T07:00:36.877Z,100.00
2019-01-28T07:03:44.390Z,100.00
2019-01-28T07:06:10.254Z,100.00
2019-01-28T07:08:36.108Z,100.00
2019-01-28T07:11:01.934Z,100.00
2019-01-28T07:13:27.804Z,100.00
2019-01-28T07:15:53.610Z,100.00
2019-01-28T07:18:19.414Z,100.00
2019-01-28T07:20:45.259Z,100.00
2019-01-28T07:23:11.088Z,100.00
2019-01-28T07:25:36.920Z,100.00
2019-01-28T07:28:44.389Z,100.00
2019-01-28T07:31:10.206Z,100.00
2019-01-28T07:33:36.012Z,100.00
2019-01-28T07:36:01.843Z,100.00
2019-01-28T07:38:27.674Z,100.00
2019-01-28T07:40:53.512Z,100.00
2019-01-28T07:43:19.334Z,100.00
2019-01-28T07:45:45.854Z,100.00
2019-01-28T07:48:12.919Z,100.00
2019-01-28T07:50:38.759Z,100.00
2019-01-28T07:53:04.573Z,100.00
2019-01-28T07:55:30.377Z,100.00
2019-01-28T07:57:56.349Z,100.00
2019-01-28T08:01:03.787Z,100.00
2019-01-28T08:03:29.743Z,100.00
2019-01-28T08:05:55.661Z,100.00
2019-01-28T08:08:21.506Z,100.00
2019-01-28T08:10:47.347Z,100.00
2019-01-28T08:13:13.207Z,100.00
2019-01-28T08:15:39.041Z,100.00
2019-01-28T08:18:10.715Z,100.00
2019-01-28T08:20:32.624Z,100.00
2019-01-28T08:22:58.438Z,100.00
2019-01-28T08:25:24.255Z,100.00
2019-01-28T08:27:50.163Z,100.00
2019-01-28T08:30:57.678Z,100.00
2019-01-28T08:33:23.513Z,100.00
2019-01-28T08:35:49.353Z,100.00
2019-01-28T08:38:15.153Z,100.00
2019-01-28T08:40:41.017Z,100.00
2019-01-28T08:43:06.869Z,100.00
2019-01-28T08:45:32.818Z,100.00
2019-01-28T08:47:58.645Z,100.00
2019-01-28T08:51:06.100Z,100.00
2019-01-28T08:53:31.926Z,100.00
2019-01-28T08:55:57.739Z,100.00
2019-01-28T08:58:23.577Z,100.00
2019-01-28T09:00:49.412Z,100.00
2019-01-28T09:03:15.241Z,100.00
2019-01-28T09:05:41.333Z,100.00
2019-01-28T09:08:48.822Z,100.00
2019-01-28T09:11:14.640Z,100.00
2019-01-28T09:13:40.463Z,100.00
2019-01-28T09:16:06.285Z,100.00
2019-01-28T09:18:32.113Z,100.00
2019-01-28T09:20:57.951Z,100.00
2019-01-28T09:23:23.791Z,100.00
2019-01-28T09:25:49.627Z,100.00
2019-01-28T09:28:15.455Z,100.00
2019-01-28T09:30:41.299Z,100.00
2019-01-28T09:33:07.220Z,100.00
2019-01-28T09:35:33.067Z,100.00
2019-01-28T09:37:58.989Z,100.00
2019-01-28T09:41:06.467Z,100.00
2019-01-28T09:43:32.323Z,100.00
2019-01-28T09:45:58.161Z,100.00
2019-01-28T09:48:23.977Z,100.00
2019-01-28T09:50:49.861Z,100.00
2019-01-28T09:53:15.695Z,100.00
2019-01-28T09:55:41.646Z,100.00
2019-01-28T09:58:07.740Z,100.00
2019-01-28T10:01:15.225Z,100.00
2019-01-28T10:03:41.072Z,100.00
2019-01-28T10:06:06.901Z,100.00
2019-01-28T10:08:32.735Z,100.00
2019-01-28T10:10:58.560Z,100.00
2019-01-28T10:13:24.414Z,100.00
2019-01-28T10:15:50.350Z,100.00
2019-01-28T10:18:16.208Z,100.00
2019-01-28T10:21:23.687Z,100.00
2019-01-28T10:23:49.565Z,100.00
2019-01-28T10:26:15.480Z,100.00
2019-01-28T10:28:41.301Z,99.90
2019-01-28T10:31:07.236Z,100.00
2019-01-28T10:33:33.069Z,100.00
2019-01-28T10:35:59.006Z,99.56
2019-01-28T10:38:24.849Z,100.00
2019-01-28T10:40:50.682Z,99.08
2019-01-28T10:43:16.525Z,99.40
2019-01-28T10:45:42.443Z,99.96
2019-01-28T10:48:49.991Z,99.01
2019-01-28T10:53:49.646Z,100.00
2019-01-28T10:56:15.480Z,100.00
2019-01-28T10:58:41.463Z,99.46
2019-01-28T11:01:07.357Z,100.00
2019-01-28T11:04:14.866Z,99.92
2019-01-28T11:06:40.693Z,99.53
2019-01-28T11:09:06.683Z,99.61
2019-01-28T11:11:32.597Z,99.24
2019-01-28T11:13:58.535Z,99.64
2019-01-28T11:16:24.370Z,99.62
2019-01-28T11:18:57.427Z,99.10
2019-01-28T11:21:17.975Z,98.54
2019-01-28T11:23:43.848Z,98.29
2019-01-28T11:26:09.739Z,99.18
2019-01-28T11:28:35.679Z,98.29
2019-01-28T11:33:49.133Z,99.69
2019-01-28T11:36:14.949Z,99.98
2019-01-28T11:38:40.834Z,100.00
2019-01-28T11:41:06.750Z,98.12
2019-01-28T11:43:32.914Z,99.23
2019-01-28T11:46:40.514Z,99.03
2019-01-28T11:49:06.538Z,99.37
2019-01-28T11:51:32.527Z,99.71
2019-01-28T11:53:58.335Z,99.18
2019-01-28T11:56:24.316Z,99.66
2019-01-28T11:58:50.129Z,100.00
2019-01-28T12:04:03.509Z,100.00
2019-01-28T12:06:29.335Z,100.00
2019-01-28T12:08:55.299Z,100.00
2019-01-28T12:11:21.128Z,100.00
2019-01-28T12:13:46.973Z,100.00
2019-01-28T12:16:12.821Z,100.00
2019-01-28T12:18:38.655Z,100.00
2019-01-28T12:21:04.691Z,100.00
2019-01-28T12:23:34.474Z,100.00
2019-01-28T12:25:58.330Z,100.00
2019-01-28T12:28:24.146Z,100.00
2019-01-28T12:30:49.999Z,100.00
2019-01-28T12:33:15.834Z,100.00
2019-01-28T12:35:41.651Z,100.00
2019-01-28T12:38:07.728Z,100.00
2019-01-28T12:40:33.587Z,100.00
2019-01-28T12:43:41.135Z,100.00
2019-01-28T12:46:07.089Z,100.00
2019-01-28T12:48:33.216Z,100.00
2019-01-28T12:50:59.086Z,100.00
2019-01-28T12:53:25.018Z,100.00
2019-01-28T12:55:50.917Z,100.00
2019-01-28T12:58:16.757Z,100.00
2019-01-28T13:01:02.547Z,100.00
2019-01-28T13:03:28.560Z,100.00
2019-01-28T13:05:54.614Z,100.00
2019-01-28T13:08:20.592Z,100.00
2019-01-28T13:10:46.992Z,100.00
2019-01-28T13:13:13.035Z,100.00
2019-01-28T13:15:39.250Z,100.00
2019-01-28T13:18:05.213Z,100.00
2019-01-28T13:20:31.095Z,100.00
2019-01-28T13:22:57.051Z,100.00
2019-01-28T13:26:04.553Z,100.00
2019-01-28T13:28:30.580Z,100.00
2019-01-28T13:30:56.768Z,100.00
2019-01-28T13:33:22.787Z,100.00
2019-01-28T13:35:48.658Z,100.00
2019-01-28T13:38:14.517Z,100.00
2019-01-28T13:40:40.485Z,100.00
2019-01-28T13:43:06.553Z,100.00
2019-01-28T13:45:32.637Z,100.00
2019-01-28T13:47:58.777Z,100.00
2019-01-28T13:50:24.741Z,100.00
2019-01-28T13:53:32.259Z,100.00
2019-01-28T13:55:58.163Z,100.00
2019-01-28T13:58:24.026Z,100.00
2019-01-28T14:00:50.020Z,100.00
2019-01-28T14:03:16.084Z,100.00
2019-01-28T14:05:42.108Z,100.00
2019-01-28T14:08:08.234Z,100.00
2019-01-28T14:10:34.248Z,100.00
2019-01-28T14:13:00.193Z,100.00
2019-01-28T14:16:07.721Z,100.00
2019-01-28T14:18:33.552Z,100.00
2019-01-28T14:20:59.407Z,100.00
2019-01-28T14:23:25.311Z,100.00
2019-01-28T14:25:51.226Z,100.00
2019-01-28T14:28:17.001Z,100.00
2019-01-28T14:31:24.503Z,100.00
2019-01-28T14:33:50.375Z,100.00
2019-01-28T14:36:16.315Z,100.00
2019-01-28T14:38:42.352Z,100.00
2019-01-28T14:41:08.273Z,100.00
2019-01-28T14:43:34.335Z,100.00
2019-01-28T14:46:00.351Z,100.00
2019-01-28T14:48:26.189Z,100.00
2019-01-28T14:51:06.245Z,100.00
2019-01-28T14:53:19.832Z,100.00
2019-01-28T14:55:45.765Z,100.00
2019-01-28T14:58:16.510Z,100.00
2019-01-28T15:01:21.227Z,100.00
2019-01-28T15:03:47.077Z,100.00
2019-01-28T15:06:26.232Z,100.00
2019-01-28T15:08:52.352Z,100.00
2019-01-28T15:11:18.237Z,100.00
2019-01-28T15:13:44.261Z,100.00
2019-01-28T15:16:10.216Z,100.00
2019-01-28T15:18:36.057Z,100.00
2019-01-28T15:21:02.077Z,100.00
2019-01-28T15:23:47.891Z,100.00
2019-01-28T15:26:13.880Z,100.00
2019-01-28T15:31:47.144Z,100.00
2019-01-28T15:34:12.992Z,100.00
2019-01-28T15:36:38.887Z,100.00
2019-01-28T15:39:46.422Z,100.00
2019-01-28T15:42:12.258Z,100.00
2019-01-28T15:44:38.138Z,100.00
2019-01-28T15:47:04.107Z,100.00
2019-01-28T15:49:29.967Z,100.00
2019-01-28T15:51:55.826Z,100.00
2019-01-28T15:54:21.929Z,100.00
2019-01-28T15:56:47.811Z,100.00
2019-01-28T15:59:34.108Z,100.00
2019-01-28T16:01:59.995Z,100.00
2019-01-28T16:04:26.188Z,100.00
2019-01-28T16:06:52.089Z,100.00
2019-01-28T16:09:18.136Z,100.00
2019-01-28T16:12:25.762Z,100.00
2019-01-28T16:14:51.905Z,100.00
2019-01-28T16:17:17.926Z,100.00
2019-01-28T16:19:43.843Z,100.00
2019-01-28T16:22:10.021Z,100.00
2019-01-28T16:24:35.933Z,100.00
2019-01-28T16:27:01.784Z,100.00
2019-01-28T16:29:27.897Z,100.00
2019-01-28T16:31:53.887Z,100.00
2019-01-28T16:34:19.744Z,100.00
2019-01-28T16:36:45.648Z,100.00
2019-01-28T16:39:11.606Z,100.00
2019-01-28T16:41:37.681Z,100.00
2019-01-28T16:44:45.210Z,100.00
2019-01-28T16:47:11.057Z,100.00
2019-01-28T16:49:36.926Z,100.00
2019-01-28T16:52:44.445Z,100.00
2019-01-28T16:55:52.052Z,100.00
2019-01-28T16:58:18.219Z,100.00
2019-01-28T17:00:44.098Z,100.00
2019-01-28T17:03:10.067Z,100.00
2019-01-28T17:06:17.585Z,100.00
2019-01-28T17:08:43.426Z,100.00
2019-01-28T17:11:09.360Z,100.00
2019-01-28T17:13:35.433Z,100.00
2019-01-28T17:16:01.404Z,100.00
2019-01-28T17:18:27.396Z,100.00
2019-01-28T17:20:53.868Z,100.00
2019-01-28T17:23:19.873Z,100.00
2019-01-28T17:25:46.239Z,100.00
2019-01-28T17:28:12.287Z,100.00
2019-01-28T17:31:22.213Z,100.00
2019-01-28T17:33:48.666Z,100.00
2019-01-28T17:36:36.086Z,100.00
2019-01-28T17:39:43.661Z,100.00
2019-01-28T17:42:09.500Z,100.00
2019-01-28T17:44:35.326Z,100.00
2019-01-28T17:47:01.377Z,100.00
2019-01-28T17:52:01.472Z,100.00
2019-01-28T17:54:27.313Z,100.00
2019-01-28T17:56:53.131Z,100.00
2019-01-28T17:59:18.973Z,100.00
2019-01-28T18:01:44.830Z,100.00
2019-01-28T18:04:10.652Z,100.00
2019-01-28T18:06:36.530Z,100.00
2019-01-28T18:09:43.995Z,100.00
2019-01-28T18:12:09.849Z,100.00
2019-01-28T18:14:35.687Z,100.00
2019-01-28T18:17:01.685Z,100.00
2019-01-28T18:19:27.651Z,100.00
2019-01-28T18:21:53.489Z,100.00
2019-01-28T18:24:19.403Z,100.00
2019-01-28T18:26:45.280Z,100.00
2019-01-28T18:29:11.306Z,100.00
2019-01-28T18:31:37.221Z,100.00
2019-01-28T18:34:44.715Z,100.00
2019-01-28T18:37:10.551Z,100.00
2019-01-28T18:39:36.506Z,100.00
2019-01-28T18:42:02.388Z,100.00
2019-01-28T18:44:28.210Z,100.00
2019-01-28T18:46:54.067Z,100.00
2019-01-28T18:49:19.971Z,100.00
2019-01-28T18:51:45.774Z,100.00
2019-01-28T18:54:11.636Z,100.00
2019-01-28T18:56:37.460Z,100.00
2019-01-28T18:59:03.401Z,100.00
2019-01-28T19:01:29.243Z,100.00
2019-01-28T19:03:55.093Z,100.00
2019-01-28T19:09:28.197Z,100.00
2019-01-28T19:17:35.399Z,100.00
2019-01-28T19:22:34.895Z,100.00
2019-01-28T19:25:20.617Z,100.00
2019-01-28T19:27:46.604Z,100.00
2019-01-28T19:30:54.090Z,100.00
2019-01-28T19:33:19.930Z,100.00
2019-01-28T19:35:45.767Z,100.00
2019-01-28T19:38:11.573Z,100.00
2019-01-28T19:40:37.415Z,100.00
2019-01-28T19:43:03.477Z,100.00
2019-01-28T19:45:29.490Z,100.00
2019-01-28T19:47:55.379Z,100.00
2019-01-28T19:50:21.364Z,100.00
2019-01-28T19:52:47.329Z,100.00
2019-01-28T19:55:54.861Z,100.00
2019-01-28T19:58:20.718Z,100.00
2019-01-28T20:00:46.564Z,100.00
2019-01-28T20:03:12.534Z,100.00
2019-01-28T20:05:38.685Z,100.00
2019-01-28T20:08:04.720Z,100.00
2019-01-28T20:10:30.932Z,100.00
2019-01-28T20:12:56.993Z,100.00
2019-01-28T20:15:42.739Z,100.00
2019-01-28T20:18:08.663Z,100.00
2019-01-28T20:20:34.606Z,100.00
2019-01-28T20:23:00.599Z,100.00
2019-01-28T20:25:26.497Z,100.00
2019-01-28T20:27:52.368Z,100.00
2019-01-28T20:30:38.096Z,100.00
2019-01-28T20:33:04.196Z,100.00
2019-01-28T20:35:30.257Z,100.00
2019-01-28T20:37:56.136Z,100.00
2019-01-28T20:40:22.099Z,100.00
2019-01-28T20:42:48.074Z,100.00
2019-01-28T20:45:55.635Z,100.00
2019-01-28T20:48:21.501Z,100.00
2019-01-28T20:50:47.372Z,100.00
2019-01-28T20:53:13.499Z,100.00
2019-01-28T20:55:39.368Z,100.00
2019-01-28T20:58:05.372Z,100.00
2019-01-28T21:00:31.386Z,100.00
2019-01-28T21:02:57.323Z,100.00
2019-01-28T21:06:04.848Z,100.00
2019-01-28T21:08:31.025Z,100.00
2019-01-28T21:10:57.021Z,100.00
2019-01-28T21:13:23.152Z,100.00
2019-01-28T21:15:49.082Z,100.00
2019-01-28T21:18:15.005Z,100.00
2019-01-28T21:20:40.943Z,100.00
2019-01-28T21:23:06.903Z,100.00
2019-01-28T21:25:32.880Z,100.00
2019-01-28T21:27:58.722Z,100.00
2019-01-28T21:31:06.209Z,100.00
2019-01-28T21:33:32.073Z,100.00
2019-01-28T21:36:17.767Z,100.00
2019-01-28T21:41:21.027Z,100.00
2019-01-28T21:43:46.875Z,100.00
2019-01-28T21:46:12.840Z,100.00
2019-01-28T21:48:38.721Z,100.00
2019-01-28T21:51:04.925Z,100.00
2019-01-28T21:53:30.785Z,100.00
2019-01-28T21:59:03.909Z,100.00
2019-01-28T22:01:29.778Z,100.00
2019-01-28T22:03:55.624Z,100.00
2019-01-28T22:06:21.492Z,100.00
2019-01-28T22:08:47.363Z,100.00
2019-01-28T22:11:13.366Z,100.00
2019-01-28T22:13:39.179Z,100.00
2019-01-28T22:16:05.185Z,100.00
2019-01-28T22:18:31.042Z,100.00
2019-01-28T22:20:57.580Z,100.00
2019-01-28T22:23:25.330Z,100.00
2019-01-28T22:25:51.201Z,100.00
2019-01-28T22:28:17.104Z,100.00
2019-01-28T22:30:43.096Z,100.00
2019-01-28T22:33:09.110Z,100.00
2019-01-28T22:35:35.134Z,100.00
2019-01-28T22:38:00.971Z,100.00
2019-01-28T22:40:26.828Z,100.00
2019-01-28T22:42:52.681Z,100.00
2019-01-28T22:45:38.401Z,100.00
2019-01-28T22:48:04.345Z,100.00
2019-01-28T22:50:30.240Z,100.00
2019-01-28T22:55:30.217Z,100.00
2019-01-28T22:57:56.163Z,100.00
2019-01-28T23:01:03.652Z,100.00
2019-01-28T23:03:29.639Z,100.00
2019-01-28T23:05:55.464Z,100.00
2019-01-28T23:08:21.296Z,100.00
2019-01-28T23:10:47.250Z,100.00
2019-01-28T23:13:13.114Z,100.00
2019-01-28T23:15:39.106Z,100.00
2019-01-28T23:18:05.100Z,100.00
2019-01-28T23:20:30.962Z,100.00
2019-01-28T23:22:56.798Z,100.00
2019-01-28T23:25:22.881Z,100.00
2019-01-28T23:27:48.722Z,100.00
2019-01-28T23:30:14.902Z,100.00
2019-01-28T23:32:40.770Z,100.00
2019-01-28T23:35:48.264Z,100.00
2019-01-28T23:38:14.116Z,100.00
2019-01-28T23:40:40.058Z,100.00
2019-01-28T23:43:05.899Z,100.00
2019-01-28T23:45:31.822Z,100.00
2019-01-28T23:47:57.776Z,100.00
2019-01-28T23:50:23.768Z,100.00
2019-01-28T23:52:49.677Z,100.00
2019-01-28T23:55:15.645Z,100.00
2019-01-28T23:57:41.493Z,100.00
